createdAt,value
2023-04-22T00:01:07.558Z,12.88
2023-04-22T00:03:36.124Z,12.82
2023-04-22T00:06:04.621Z,11.80
2023-04-22T00:08:33.104Z,13.68
2023-04-22T00:11:01.628Z,12.52
2023-04-22T00:13:29.929Z,12.35
2023-04-22T00:15:59.979Z,13.20
2023-04-22T00:18:28.547Z,13.43
2023-04-22T00:20:56.842Z,11.52
2023-04-22T00:23:25.267Z,11.60
2023-04-22T00:25:53.501Z,12.00
2023-04-22T00:28:21.813Z,12.43
2023-04-22T00:30:50.352Z,12.23
2023-04-22T00:33:20.028Z,12.57
2023-04-22T00:35:48.308Z,12.32
2023-04-22T00:38:19.118Z,12.23
2023-04-22T00:40:47.361Z,11.73
2023-04-22T00:43:17.923Z,11.43
2023-04-22T00:45:49.341Z,12.02
2023-04-22T00:48:17.580Z,11.57
2023-04-22T00:50:47.166Z,12.48
2023-04-22T00:53:15.657Z,11.45
2023-04-22T00:55:44.009Z,11.52
2023-04-22T00:58:12.405Z,11.10
2023-04-22T01:00:40.814Z,12.23
2023-04-22T01:03:09.203Z,11.15
2023-04-22T01:05:37.744Z,12.57
2023-04-22T01:08:07.466Z,11.02
2023-04-22T01:10:36.052Z,11.05
2023-04-22T01:13:05.888Z,13.30
2023-04-22T01:15:34.353Z,12.20
2023-04-22T01:18:03.352Z,12.02
2023-04-22T01:20:31.933Z,12.80
2023-04-22T01:23:04.317Z,12.52
2023-04-22T01:25:34.108Z,12.35
2023-04-22T01:28:02.474Z,12.23
2023-04-22T01:30:30.925Z,12.27
2023-04-22T01:32:59.639Z,11.77
2023-04-22T01:35:30.120Z,12.13
2023-04-22T01:37:58.691Z,12.75
2023-04-22T01:40:28.340Z,12.10
2023-04-22T01:42:58.817Z,12.23
2023-04-22T01:45:27.484Z,11.57
2023-04-22T01:47:56.566Z,10.82
2023-04-22T01:50:25.287Z,10.55
2023-04-22T01:52:53.919Z,10.15
2023-04-22T01:55:23.881Z,10.52
2023-04-22T01:57:52.332Z,9.40
2023-04-22T02:00:22.164Z,10.52
2023-04-22T02:02:50.522Z,10.13
2023-04-22T02:05:19.480Z,10.10
2023-04-22T02:07:48.224Z,10.32
2023-04-22T02:10:18.305Z,10.23
2023-04-22T02:12:46.775Z,9.75
2023-04-22T02:15:16.223Z,10.10
2023-04-22T02:17:46.224Z,9.95
2023-04-22T02:20:14.860Z,9.65
2023-04-22T02:22:44.328Z,9.98
2023-04-22T02:25:14.091Z,9.43
2023-04-22T02:27:42.563Z,9.57
2023-04-22T02:30:11.562Z,9.93
2023-04-22T02:32:40.333Z,10.63
2023-04-22T02:35:11.202Z,10.18
2023-04-22T02:37:39.613Z,9.85
2023-04-22T02:40:08.841Z,9.45
2023-04-22T02:42:37.328Z,10.63
2023-04-22T02:45:06.070Z,9.73
2023-04-22T02:47:34.381Z,10.00
2023-04-22T02:50:03.936Z,8.75
2023-04-22T02:52:34.957Z,9.77
2023-04-22T02:55:03.692Z,9.48
2023-04-22T02:57:32.293Z,9.52
2023-04-22T03:00:01.019Z,10.13
2023-04-22T03:02:29.813Z,10.13
2023-04-22T03:05:14.709Z,11.18
2023-04-22T03:07:44.616Z,10.05
2023-04-22T03:10:13.184Z,11.32
2023-04-22T03:12:41.861Z,10.80
2023-04-22T03:15:10.614Z,9.93
2023-04-22T03:17:39.002Z,10.52
2023-04-22T03:20:12.325Z,10.07
2023-04-22T03:22:40.802Z,10.40
2023-04-22T03:25:12.472Z,10.40
2023-04-22T03:27:41.185Z,10.13
2023-04-22T03:30:09.890Z,10.68
2023-04-22T03:32:38.216Z,10.60
2023-04-22T03:35:26.886Z,11.95
2023-04-22T03:37:57.561Z,11.05
2023-04-22T03:40:32.569Z,11.10
2023-04-22T03:43:03.627Z,11.13
2023-04-22T03:45:32.214Z,11.25
2023-04-22T03:48:15.805Z,11.48
2023-04-22T03:50:49.265Z,10.52
2023-04-22T03:53:18.675Z,10.55
2023-04-22T03:55:48.464Z,10.88
2023-04-22T03:58:18.947Z,11.63
2023-04-22T04:00:48.615Z,8.88
2023-04-22T04:03:18.887Z,9.57
2023-04-22T04:05:50.708Z,9.60
2023-04-22T04:08:19.057Z,7.18
2023-04-22T04:10:48.600Z,7.82
2023-04-22T04:13:17.652Z,7.28
2023-04-22T04:16:01.432Z,7.38
2023-04-22T04:18:32.730Z,8.10
2023-04-22T04:21:01.922Z,7.13
2023-04-22T04:23:33.398Z,7.43
2023-04-22T04:26:05.486Z,6.95
2023-04-22T04:28:36.518Z,7.38
2023-04-22T04:31:05.248Z,8.75
2023-04-22T04:33:34.039Z,8.40
2023-04-22T04:36:03.122Z,8.48
2023-04-22T04:38:34.308Z,8.70
2023-04-22T04:41:03.974Z,9.02
2023-04-22T04:43:33.720Z,8.35
2023-04-22T04:46:14.895Z,9.48
2023-04-22T04:48:46.045Z,10.30
2023-04-22T04:51:15.649Z,10.23
2023-04-22T04:53:51.311Z,10.40
2023-04-22T04:56:21.457Z,9.73
2023-04-22T04:58:50.334Z,10.88
2023-04-22T05:01:25.793Z,11.43
2023-04-22T05:03:55.481Z,11.02
2023-04-22T05:06:24.136Z,11.50
2023-04-22T05:09:01.756Z,9.57
2023-04-22T05:11:31.688Z,10.02
2023-04-22T05:14:01.971Z,9.85
2023-04-22T05:16:37.749Z,10.07
2023-04-22T05:19:06.100Z,9.18
2023-04-22T05:21:34.994Z,9.85
2023-04-22T05:24:03.480Z,9.95
2023-04-22T05:26:33.220Z,10.60
2023-04-22T05:29:06.941Z,9.20
2023-04-22T05:31:35.377Z,10.23
2023-04-22T05:34:03.732Z,10.75
2023-04-22T05:36:32.941Z,11.45
2023-04-22T05:39:01.789Z,11.65
2023-04-22T05:41:33.180Z,11.73
2023-04-22T05:44:01.984Z,12.45
2023-04-22T05:46:31.857Z,11.63
2023-04-22T05:49:01.035Z,12.88
2023-04-22T05:51:49.771Z,13.02
2023-04-22T05:54:21.563Z,12.13
2023-04-22T05:56:51.215Z,13.73
2023-04-22T05:59:21.690Z,12.18
2023-04-22T06:01:51.179Z,12.88
2023-04-22T06:04:21.743Z,13.30
2023-04-22T06:06:53.766Z,13.63
2023-04-22T06:09:22.269Z,13.93
2023-04-22T06:11:51.919Z,13.63
2023-04-22T06:14:20.568Z,13.13
2023-04-22T06:16:50.378Z,13.38
2023-04-22T06:19:18.977Z,11.82
2023-04-22T06:21:47.519Z,11.77
2023-04-22T06:24:15.865Z,12.25
2023-04-22T06:26:44.170Z,11.73
2023-04-22T06:29:13.955Z,12.02
2023-04-22T06:31:42.397Z,13.43
2023-04-22T06:34:10.963Z,12.60
2023-04-22T06:36:39.816Z,13.57
2023-04-22T06:39:11.073Z,13.02
2023-04-22T06:42:02.221Z,13.88
2023-04-22T06:44:50.623Z,13.65
2023-04-22T06:47:25.137Z,13.18
2023-04-22T06:50:02.068Z,14.63
2023-04-22T06:52:35.897Z,14.40
2023-04-22T06:55:05.004Z,14.45
2023-04-22T06:57:33.264Z,15.50
2023-04-22T07:00:04.235Z,14.52
2023-04-22T07:02:33.196Z,13.63
2023-04-22T07:05:01.731Z,15.40
2023-04-22T07:07:30.833Z,15.43
2023-04-22T07:09:59.984Z,15.10
2023-04-22T07:12:34.528Z,14.45
2023-04-22T07:15:04.352Z,13.98
2023-04-22T07:17:32.622Z,13.73
2023-04-22T07:20:00.890Z,14.90
2023-04-22T07:22:29.939Z,13.48
2023-04-22T07:24:58.686Z,14.52
2023-04-22T07:27:27.014Z,13.90
2023-04-22T07:29:55.451Z,12.30
2023-04-22T07:32:25.257Z,12.82
2023-04-22T07:34:53.587Z,12.25
2023-04-22T07:37:23.289Z,13.43
2023-04-22T07:39:51.785Z,12.65
2023-04-22T07:42:20.574Z,13.20
2023-04-22T07:44:49.006Z,13.52
2023-04-22T07:47:17.475Z,12.40
2023-04-22T07:49:47.250Z,13.63
2023-04-22T07:52:15.760Z,13.25
2023-04-22T07:54:44.068Z,13.55
2023-04-22T07:57:12.404Z,12.95
2023-04-22T07:59:41.185Z,11.85
2023-04-22T08:02:09.836Z,11.57
2023-04-22T08:04:38.275Z,10.40
2023-04-22T08:07:26.817Z,9.73
2023-04-22T08:09:56.990Z,9.43
2023-04-22T08:12:25.348Z,9.35
2023-04-22T08:14:54.217Z,9.63
2023-04-22T08:17:22.983Z,8.10
2023-04-22T08:19:51.457Z,8.13
2023-04-22T08:22:21.259Z,8.40
2023-04-22T08:24:49.738Z,7.50
2023-04-22T08:27:19.344Z,6.80
2023-04-22T08:29:47.682Z,7.50
2023-04-22T08:32:16.080Z,7.18
2023-04-22T08:34:44.500Z,6.72
2023-04-22T08:37:12.843Z,7.50
2023-04-22T08:39:42.718Z,6.88
2023-04-22T08:42:11.280Z,7.25
2023-04-22T08:44:40.547Z,8.00
2023-04-22T08:47:09.963Z,7.80
2023-04-22T08:49:39.752Z,6.50
2023-04-22T08:52:09.472Z,6.88
2023-04-22T08:54:37.731Z,7.53
2023-04-22T08:57:08.420Z,8.02
2023-04-22T08:59:37.358Z,7.85
2023-04-22T09:02:06.661Z,6.70
2023-04-22T09:04:35.584Z,6.45
2023-04-22T09:07:04.630Z,6.90
2023-04-22T09:09:32.978Z,6.43
2023-04-22T09:12:02.984Z,6.70
2023-04-22T09:14:33.886Z,6.85
2023-04-22T09:17:04.600Z,7.88
2023-04-22T09:19:32.867Z,6.88
2023-04-22T09:22:01.337Z,6.93
2023-04-22T09:24:30.059Z,7.20
2023-04-22T09:26:58.761Z,6.03
2023-04-22T09:29:31.142Z,5.18
2023-04-22T09:32:01.220Z,7.28
2023-04-22T09:34:30.206Z,6.85
2023-04-22T09:36:58.841Z,6.72
2023-04-22T09:39:27.228Z,7.00
2023-04-22T09:41:57.544Z,6.68
2023-04-22T09:44:29.273Z,5.90
2023-04-22T09:46:57.759Z,6.30
2023-04-22T09:49:29.070Z,6.93
2023-04-22T09:51:59.132Z,6.13
2023-04-22T09:54:27.470Z,6.18
2023-04-22T09:56:56.657Z,5.38
2023-04-22T09:59:25.859Z,4.95
2023-04-22T10:01:55.256Z,6.13
2023-04-22T10:04:25.578Z,5.82
2023-04-22T10:06:55.884Z,5.22
2023-04-22T10:09:25.888Z,6.00
2023-04-22T10:11:55.380Z,5.65
2023-04-22T10:14:24.028Z,6.00
2023-04-22T10:16:53.856Z,6.00
2023-04-22T10:19:23.356Z,5.88
2023-04-22T10:21:54.676Z,6.03
2023-04-22T10:24:27.535Z,6.53
2023-04-22T10:26:57.261Z,6.85
2023-04-22T10:29:26.219Z,7.00
2023-04-22T10:31:57.343Z,6.47
2023-04-22T10:34:25.676Z,6.15
2023-04-22T10:36:54.439Z,5.53
2023-04-22T10:39:24.460Z,7.05
2023-04-22T10:41:53.351Z,6.78
2023-04-22T10:44:22.443Z,5.85
2023-04-22T10:47:01.093Z,6.57
2023-04-22T10:49:31.979Z,6.60
2023-04-22T10:52:01.195Z,5.93
2023-04-22T10:54:48.320Z,5.63
2023-04-22T10:57:22.954Z,5.65
2023-04-22T10:59:53.513Z,5.47
2023-04-22T11:02:22.383Z,5.60
2023-04-22T11:04:52.178Z,5.28
2023-04-22T11:07:32.065Z,5.47
2023-04-22T11:10:01.333Z,6.28
2023-04-22T11:12:53.877Z,6.50
2023-04-22T11:15:23.542Z,6.22
2023-04-22T11:17:52.465Z,6.63
2023-04-22T11:20:21.332Z,6.53
2023-04-22T11:22:50.470Z,6.75
2023-04-22T11:25:18.818Z,6.75
2023-04-22T11:27:47.661Z,6.78
2023-04-22T11:30:16.707Z,7.00
2023-04-22T11:32:47.003Z,6.88
2023-04-22T11:35:16.601Z,5.72
2023-04-22T11:37:46.192Z,6.22
2023-04-22T11:40:28.893Z,6.22
2023-04-22T11:42:58.852Z,6.53
2023-04-22T11:45:27.261Z,7.35
2023-04-22T11:47:57.012Z,6.97
2023-04-22T11:50:26.752Z,6.88
2023-04-22T11:52:56.282Z,6.85
2023-04-22T11:55:27.034Z,7.25
2023-04-22T11:57:56.713Z,7.20
2023-04-22T12:00:25.821Z,8.10
2023-04-22T12:03:00.342Z,8.05
2023-04-22T12:05:39.125Z,7.30
2023-04-22T12:08:11.874Z,7.20
2023-04-22T12:10:44.123Z,7.38
2023-04-22T12:13:19.485Z,7.25
2023-04-22T12:15:47.767Z,8.40
2023-04-22T12:18:17.533Z,8.85
2023-04-22T12:20:45.826Z,8.27
2023-04-22T12:23:15.441Z,9.30
2023-04-22T12:25:45.057Z,9.50
2023-04-22T12:28:14.340Z,8.80
2023-04-22T12:30:42.819Z,8.45
2023-04-22T12:33:11.603Z,9.45
2023-04-22T12:35:41.746Z,7.60
2023-04-22T12:38:09.944Z,9.25
2023-04-22T12:40:38.281Z,10.20
2023-04-22T12:43:06.863Z,9.57
2023-04-22T12:45:35.168Z,9.60
2023-04-22T12:48:03.731Z,9.52
2023-04-22T12:50:31.999Z,11.45
2023-04-22T12:53:01.772Z,10.90
2023-04-22T12:55:30.382Z,11.48
2023-04-22T12:57:58.873Z,12.82
2023-04-22T13:00:27.412Z,13.18
2023-04-22T13:02:56.111Z,12.45
2023-04-22T13:05:24.597Z,12.20
2023-04-22T13:08:05.775Z,14.00
2023-04-22T13:10:36.964Z,14.32
2023-04-22T13:13:17.865Z,14.20
2023-04-22T13:15:47.738Z,15.63
2023-04-22T13:18:17.197Z,14.35
2023-04-22T13:20:45.673Z,14.35
2023-04-22T13:23:14.875Z,14.75
2023-04-22T13:25:44.541Z,14.35
2023-04-22T13:28:12.832Z,13.43
2023-04-22T13:30:41.531Z,16.80
2023-04-22T13:33:09.796Z,15.88
2023-04-22T13:35:38.148Z,14.65
2023-04-22T13:38:07.704Z,15.10
2023-04-22T13:40:35.994Z,16.13
2023-04-22T13:43:06.183Z,16.17
2023-04-22T13:45:34.767Z,15.57
2023-04-22T13:48:03.395Z,14.60
2023-04-22T13:50:31.754Z,14.05
2023-04-22T13:53:00.215Z,15.57
2023-04-22T13:55:28.645Z,14.50
2023-04-22T13:57:57.089Z,15.38
2023-04-22T14:00:27.130Z,15.18
2023-04-22T14:02:56.473Z,14.73
2023-04-22T14:05:24.899Z,15.88
2023-04-22T14:07:53.331Z,17.02
2023-04-22T14:10:22.123Z,14.32
2023-04-22T14:12:50.901Z,15.57
2023-04-22T14:15:19.285Z,15.40
2023-04-22T14:17:49.587Z,15.23
2023-04-22T14:20:18.260Z,15.85
2023-04-22T14:22:46.689Z,15.80
2023-04-22T14:25:15.031Z,16.10
2023-04-22T14:27:43.403Z,15.93
2023-04-22T14:30:12.530Z,14.48
2023-04-22T14:32:41.087Z,15.80
2023-04-22T14:35:11.100Z,16.38
2023-04-22T14:37:41.463Z,15.45
2023-04-22T14:40:12.286Z,16.80
2023-04-22T14:42:40.986Z,16.67
2023-04-22T14:45:09.728Z,18.85
2023-04-22T14:47:38.006Z,18.70
2023-04-22T14:50:06.799Z,18.77
2023-04-22T14:52:36.599Z,18.20
2023-04-22T14:55:15.433Z,16.95
2023-04-22T14:57:51.689Z,17.02
2023-04-22T15:00:20.082Z,17.65
2023-04-22T15:02:48.555Z,16.70
2023-04-22T15:05:17.193Z,16.83
2023-04-22T15:07:46.809Z,19.55
2023-04-22T15:10:16.781Z,18.33
2023-04-22T15:12:45.352Z,18.05
2023-04-22T15:15:15.913Z,17.90
2023-04-22T15:17:44.776Z,17.38
2023-04-22T15:20:13.845Z,15.27
2023-04-22T15:22:42.262Z,15.45
2023-04-22T15:25:12.393Z,16.90
2023-04-22T15:27:41.180Z,15.93
2023-04-22T15:30:10.871Z,16.15
2023-04-22T15:32:39.959Z,17.85
2023-04-22T15:35:08.746Z,18.27
2023-04-22T15:37:37.151Z,17.92
2023-04-22T15:40:06.875Z,19.15
2023-04-22T15:42:36.775Z,18.00
2023-04-22T15:45:05.323Z,19.95
2023-04-22T15:47:34.769Z,20.10
2023-04-22T15:50:06.750Z,19.60
2023-04-22T15:53:17.936Z,19.42
2023-04-22T15:55:51.303Z,19.65
2023-04-22T15:58:20.978Z,20.60
2023-04-22T16:00:49.651Z,20.35
2023-04-22T16:03:18.107Z,20.90
2023-04-22T16:05:47.029Z,20.95
2023-04-22T16:08:15.582Z,19.95
2023-04-22T16:10:43.837Z,20.17
2023-04-22T16:13:12.465Z,18.73
2023-04-22T16:15:42.344Z,19.67
2023-04-22T16:18:10.941Z,19.08
2023-04-22T16:20:42.904Z,17.85
2023-04-22T16:23:14.065Z,21.23
2023-04-22T16:25:42.443Z,20.70
2023-04-22T16:28:11.387Z,19.83
2023-04-22T16:30:42.042Z,20.00
2023-04-22T16:33:10.489Z,20.95
2023-04-22T16:35:38.926Z,20.63
2023-04-22T16:38:07.278Z,20.75
2023-04-22T16:40:37.445Z,20.20
2023-04-22T16:43:05.827Z,18.42
2023-04-22T16:45:34.270Z,19.65
2023-04-22T16:48:03.882Z,18.27
2023-04-22T16:50:32.258Z,19.20
2023-04-22T16:53:00.852Z,17.90
2023-04-22T16:55:31.973Z,17.92
2023-04-22T16:58:02.678Z,18.30
2023-04-22T17:00:33.354Z,18.58
2023-04-22T17:03:01.820Z,19.38
2023-04-22T17:05:31.726Z,18.75
2023-04-22T17:08:00.380Z,18.58
2023-04-22T17:10:28.765Z,19.50
2023-04-22T17:12:57.223Z,18.33
2023-04-22T17:15:25.694Z,19.50
2023-04-22T17:17:54.026Z,20.67
2023-04-22T17:20:22.326Z,19.58
2023-04-22T17:22:52.454Z,19.45
2023-04-22T17:25:20.785Z,18.35
2023-04-22T17:27:49.019Z,19.60
2023-04-22T17:30:17.546Z,18.33
2023-04-22T17:32:45.967Z,20.38
2023-04-22T17:35:14.369Z,17.92
2023-04-22T17:37:42.800Z,19.75
2023-04-22T17:40:12.840Z,20.77
2023-04-22T17:42:45.922Z,20.65
2023-04-22T17:45:15.132Z,19.60
2023-04-22T17:47:43.531Z,19.50
2023-04-22T17:50:12.132Z,18.77
2023-04-22T17:52:40.674Z,20.45
2023-04-22T17:55:09.779Z,21.15
2023-04-22T17:57:39.335Z,18.42
2023-04-22T18:00:08.804Z,19.42
2023-04-22T18:02:37.182Z,20.50
2023-04-22T18:05:05.960Z,19.00
2023-04-22T18:07:34.590Z,19.80
2023-04-22T18:10:02.907Z,20.33
2023-04-22T18:12:31.701Z,18.52
2023-04-22T18:15:01.894Z,19.92
2023-04-22T18:17:30.243Z,19.02
2023-04-22T18:20:09.720Z,20.33
2023-04-22T18:22:42.915Z,21.52
2023-04-22T18:25:11.337Z,21.52
2023-04-22T18:27:39.574Z,19.02
2023-04-22T18:30:09.841Z,18.38
2023-04-22T18:32:38.718Z,20.23
2023-04-22T18:35:07.689Z,18.30
2023-04-22T18:37:36.133Z,19.10
2023-04-22T18:40:05.784Z,19.27
2023-04-22T18:42:34.143Z,19.05
2023-04-22T18:45:04.554Z,19.30
2023-04-22T18:47:34.808Z,20.48
2023-04-22T18:50:03.317Z,19.55
2023-04-22T18:52:31.966Z,20.63
2023-04-22T18:55:03.734Z,20.75
2023-04-22T18:57:32.085Z,21.00
2023-04-22T19:00:02.147Z,21.25
2023-04-22T19:02:30.644Z,20.27
2023-04-22T19:05:00.717Z,21.25
2023-04-22T19:07:32.285Z,21.42
2023-04-22T19:10:00.732Z,20.17
2023-04-22T19:12:29.049Z,22.02
2023-04-22T19:14:59.595Z,19.55
2023-04-22T19:17:28.828Z,20.92
2023-04-22T19:19:59.393Z,19.20
2023-04-22T19:22:29.645Z,19.35
2023-04-22T19:24:58.758Z,19.23
2023-04-22T19:27:27.122Z,20.13
2023-04-22T19:29:55.517Z,20.08
2023-04-22T19:32:23.839Z,20.58
2023-04-22T19:34:52.400Z,20.48
2023-04-22T19:37:21.936Z,20.13
2023-04-22T19:39:51.602Z,21.85
2023-04-22T19:42:20.934Z,20.23
2023-04-22T19:44:51.234Z,20.52
2023-04-22T19:47:19.693Z,19.90
2023-04-22T19:49:50.311Z,20.25
2023-04-22T19:52:22.722Z,20.88
2023-04-22T19:54:55.697Z,20.88
2023-04-22T19:57:24.798Z,21.08
2023-04-22T19:59:54.993Z,20.60
2023-04-22T20:02:24.006Z,20.73
2023-04-22T20:04:54.505Z,21.90
2023-04-22T20:07:22.935Z,20.60
2023-04-22T20:09:53.461Z,21.80
2023-04-22T20:12:24.222Z,21.75
2023-04-22T20:14:55.803Z,21.42
2023-04-22T20:17:37.575Z,19.55
2023-04-22T20:20:07.389Z,21.33
2023-04-22T20:22:38.639Z,20.70
2023-04-22T20:25:15.623Z,19.80
2023-04-22T20:27:48.453Z,19.25
2023-04-22T20:34:27.052Z,20.23
2023-04-22T20:37:14.738Z,20.35
2023-04-22T20:39:53.546Z,20.15
2023-04-22T20:42:39.954Z,21.70
2023-04-22T20:45:09.884Z,20.45
2023-04-22T20:47:51.461Z,19.90
2023-04-22T20:54:35.565Z,18.38
2023-04-22T21:15:54.825Z,20.38
2023-04-22T21:22:05.653Z,21.67
2023-04-22T21:24:35.924Z,18.40
2023-04-22T21:27:04.594Z,18.95
2023-04-22T21:29:33.634Z,21.33
2023-04-22T21:32:09.154Z,20.35
2023-04-22T21:34:42.754Z,19.52
2023-04-22T21:37:14.303Z,20.98
2023-04-22T21:39:44.205Z,20.10
2023-04-22T21:42:12.555Z,19.17
2023-04-22T21:44:41.325Z,18.42
2023-04-22T21:47:09.820Z,20.80
2023-04-22T21:49:40.646Z,22.08
2023-04-22T21:52:09.043Z,20.70
2023-04-22T21:54:48.816Z,21.52
2023-04-22T21:57:28.212Z,20.13
2023-04-22T21:59:57.130Z,20.17
2023-04-22T22:02:27.698Z,21.55
2023-04-22T22:04:56.364Z,22.08
2023-04-22T22:07:24.903Z,22.48
2023-04-22T22:10:02.025Z,22.58
2023-04-22T22:12:38.267Z,22.42
2023-04-22T22:15:08.613Z,22.70
2023-04-22T22:17:38.166Z,21.67
2023-04-22T22:20:07.958Z,21.50
2023-04-22T22:22:36.290Z,22.95
2023-04-22T22:25:04.674Z,23.45
2023-04-22T22:27:36.884Z,21.23
2023-04-22T22:30:06.479Z,22.40
2023-04-22T22:32:35.090Z,22.13
2023-04-22T22:35:05.766Z,22.15
2023-04-22T22:37:34.559Z,23.55
2023-04-22T22:40:10.037Z,22.40
2023-04-22T22:42:39.902Z,22.10
2023-04-22T22:45:13.189Z,21.50
2023-04-22T22:47:44.188Z,23.95
2023-04-22T22:50:19.495Z,24.13
2023-04-22T22:52:50.078Z,24.00
2023-04-22T22:55:18.336Z,24.27
2023-04-22T22:57:52.025Z,22.42
2023-04-22T23:00:20.597Z,22.63
2023-04-22T23:02:49.165Z,23.05
2023-04-22T23:05:17.704Z,22.25
2023-04-22T23:07:45.999Z,22.95
2023-04-22T23:10:16.720Z,23.00
2023-04-22T23:12:45.114Z,23.90
2023-04-22T23:15:17.039Z,23.83
2023-04-22T23:17:45.831Z,26.90
2023-04-22T23:20:14.453Z,25.23
2023-04-22T23:22:43.297Z,25.50
2023-04-22T23:25:12.260Z,24.25
2023-04-22T23:27:41.265Z,24.42
2023-04-22T23:30:10.206Z,25.15
2023-04-22T23:32:41.156Z,24.88
2023-04-22T23:35:14.443Z,25.77
2023-04-22T23:37:45.324Z,26.60
2023-04-22T23:40:14.173Z,24.13
2023-04-22T23:42:42.471Z,26.92
2023-04-22T23:45:13.773Z,27.25
2023-04-22T23:47:43.527Z,25.08
2023-04-22T23:50:13.972Z,25.95
2023-04-22T23:52:42.678Z,25.65
2023-04-22T23:55:11.723Z,26.60
2023-04-22T23:57:40.347Z,24.45
